createdAt,value
2023-01-02T07:39:47.623Z,1.74
2023-01-02T07:44:49.197Z,1.87
2023-01-02T07:49:50.768Z,1.84
2023-01-02T07:54:52.387Z,1.89
2023-01-02T08:00:26.481Z,1.88
2023-01-02T08:05:28.912Z,1.90
2023-01-02T08:10:30.634Z,2.29
2023-01-02T08:15:33.194Z,2.02
2023-01-02T08:20:34.858Z,2.02
2023-01-02T08:25:36.471Z,1.54
2023-01-02T08:30:40.736Z,2.21
2023-01-02T08:35:42.495Z,2.08
2023-01-02T08:40:44.352Z,2.09
2023-01-02T08:45:46.145Z,1.99
2023-01-02T08:50:48.446Z,2.34
2023-01-02T08:55:50.753Z,2.42
2023-01-02T09:00:52.715Z,2.45
2023-01-02T09:05:55.473Z,1.79
2023-01-02T09:10:57.111Z,2.14
2023-01-02T09:15:58.827Z,2.06
2023-01-02T09:21:00.713Z,2.38
2023-01-02T09:26:04.611Z,2.34
2023-01-02T09:31:12.089Z,2.56
2023-01-02T09:36:18.766Z,2.73
2023-01-02T09:41:40.635Z,2.94
2023-01-02T09:46:42.484Z,2.96
2023-01-02T09:51:45.330Z,2.54
2023-01-02T09:56:52.234Z,3.16
2023-01-02T10:02:07.398Z,2.82
2023-01-02T10:07:23.335Z,3.28
2023-01-02T10:12:36.587Z,3.20
2023-01-02T10:17:44.757Z,3.37
2023-01-02T10:23:01.415Z,3.35
2023-01-02T10:28:07.153Z,3.37
2023-01-02T10:33:37.117Z,3.16
2023-01-02T10:38:39.520Z,3.29
2023-01-02T10:43:41.130Z,3.39
2023-01-02T10:48:52.215Z,3.45
2023-01-02T10:54:00.952Z,3.29
2023-01-02T10:59:03.573Z,3.51
2023-01-02T11:04:05.178Z,3.60
2023-01-02T11:09:27.085Z,3.61
2023-01-02T11:14:34.472Z,3.52
2023-01-02T11:19:44.963Z,3.44
2023-01-02T11:24:46.552Z,3.78
2023-01-02T11:29:50.656Z,3.16
2023-01-02T11:35:02.787Z,3.69
2023-01-02T11:40:24.484Z,3.37
2023-01-02T11:45:27.048Z,3.66
2023-01-02T11:50:35.198Z,3.93
2023-01-02T11:55:45.322Z,3.67
2023-01-02T12:00:52.015Z,3.70
2023-01-02T12:06:13.451Z,3.89
2023-01-02T12:11:24.796Z,3.88
2023-01-02T12:16:52.581Z,3.81
2023-01-02T12:21:54.259Z,3.99
2023-01-02T12:27:01.325Z,3.75
2023-01-02T12:32:32.228Z,3.50
2023-01-02T12:37:39.737Z,3.58
2023-01-02T12:43:00.053Z,3.72
2023-01-02T12:48:01.735Z,3.90
2023-01-02T12:53:37.253Z,3.92
2023-01-02T12:59:09.614Z,4.04
2023-01-02T13:05:15.404Z,3.92
2023-01-02T13:10:20.468Z,3.91
2023-01-02T13:15:30.903Z,3.93
2023-01-02T13:20:56.754Z,3.67
2023-01-02T13:26:08.879Z,3.39
2023-01-02T13:31:44.753Z,3.87
2023-01-02T13:36:42.899Z,3.76
2023-01-02T13:42:12.128Z,3.51
2023-01-02T13:47:25.546Z,3.80
2023-01-02T13:52:29.163Z,3.49
2023-01-02T13:57:32.670Z,3.37
2023-01-02T14:09:19.576Z,3.44
2023-01-02T14:14:35.972Z,3.79
2023-01-02T14:19:38.446Z,3.73
2023-01-02T14:24:49.326Z,3.62
2023-01-02T14:29:53.542Z,3.67
2023-01-02T14:34:58.643Z,3.45
2023-01-02T14:40:23.484Z,2.98
2023-01-02T14:45:28.290Z,3.14
2023-01-02T14:50:33.556Z,3.32
2023-01-02T14:55:42.037Z,3.28
2023-01-02T15:00:47.441Z,3.17
2023-01-02T15:06:25.078Z,2.90
2023-01-02T15:11:45.436Z,3.15
2023-01-02T15:16:52.559Z,3.27
2023-01-02T15:21:55.569Z,2.87
2023-01-02T15:27:31.724Z,3.00
2023-01-02T15:32:34.052Z,2.98
2023-01-02T15:37:44.793Z,2.74
2023-01-02T15:43:06.022Z,3.10
2023-01-02T15:48:08.140Z,3.28
2023-01-02T15:53:26.200Z,3.26
2023-01-02T15:58:30.702Z,3.40
2023-01-02T16:04:00.673Z,3.13
2023-01-02T16:09:02.512Z,3.27
2023-01-02T16:14:19.132Z,2.99
2023-01-02T16:19:54.675Z,3.29
2023-01-02T16:25:19.382Z,3.40
2023-01-02T16:30:23.742Z,3.38
2023-01-02T16:35:29.757Z,3.31
2023-01-02T16:40:58.883Z,3.48
2023-01-02T16:45:53.290Z,2.74
2023-01-02T16:50:56.876Z,2.82
2023-01-02T16:55:59.284Z,2.56
2023-01-02T17:01:01.458Z,3.14
2023-01-02T17:06:10.081Z,2.93
2023-01-02T17:11:17.609Z,3.37
2023-01-02T17:16:19.838Z,2.83
2023-01-02T17:21:22.536Z,3.29
2023-01-02T17:26:26.804Z,2.79
2023-01-02T17:31:28.579Z,3.05
2023-01-02T17:36:33.310Z,2.84
2023-01-02T17:41:34.952Z,3.29
2023-01-02T17:47:09.519Z,2.96
2023-01-02T17:51:58.277Z,3.23
2023-01-02T17:56:59.942Z,3.18
2023-01-02T18:02:02.429Z,3.45
2023-01-02T18:07:04.308Z,3.17
2023-01-02T18:12:06.354Z,3.06
2023-01-02T18:17:25.473Z,3.19
2023-01-02T18:22:31.660Z,3.35
2023-01-02T18:27:35.248Z,3.36
2023-01-02T18:32:39.493Z,3.03
2023-01-02T18:37:41.675Z,3.16
2023-01-02T18:42:49.063Z,3.43
2023-01-02T18:47:57.031Z,2.80
2023-01-02T18:52:59.221Z,2.88
2023-01-02T18:58:09.309Z,3.45
2023-01-02T19:03:19.242Z,3.11
2023-01-02T19:08:30.110Z,3.38
2023-01-02T19:13:34.426Z,3.39
2023-01-02T19:24:21.696Z,3.47
2023-01-02T19:29:29.756Z,3.50
2023-01-02T19:34:34.492Z,3.42
2023-01-02T19:39:40.132Z,3.49
2023-01-02T19:44:41.858Z,3.45
2023-01-02T19:49:43.807Z,3.42
2023-01-02T19:54:46.599Z,3.30
2023-01-02T19:59:49.889Z,3.23
2023-01-02T20:04:53.861Z,3.19
2023-01-02T20:09:55.457Z,3.31
2023-01-02T20:14:58.843Z,3.17
2023-01-02T20:20:01.194Z,3.23
2023-01-02T20:25:02.907Z,3.30
2023-01-02T20:30:05.676Z,3.18
2023-01-02T20:35:07.999Z,3.20
2023-01-02T20:40:10.213Z,3.28
2023-01-02T20:45:12.350Z,3.27
2023-01-02T20:50:13.956Z,3.20
2023-01-02T20:55:15.867Z,3.10
2023-01-02T21:00:18.255Z,3.03
2023-01-02T21:05:19.919Z,3.02
2023-01-02T21:10:21.845Z,3.17
2023-01-02T21:15:42.254Z,3.07
2023-01-02T21:20:46.730Z,3.10
2023-01-02T21:25:49.549Z,3.28
